Latest Weather Observations for Bega

IDN60801

Issued at 6:05 pm EDT Friday 6 March 2015 (issued every 30 minutes, with the page automatically refreshed every 10 minutes)

About weather observations | Map of weather stations | Latest weather observations for NSW | Other Formats
Station Details ID: 069139 Name: BEGA AWS Lat: -36.67 Lon: 149.82 Height: 41.0 m
Data from the previous 72 hours. | See also: Recent months at Bega
Date/Time
EDT
Temp
°C
App
Temp
°C
Dew
Point
Rel
Hum
%
Delta-T
°C
Wind Press
QNH
hPa
Press
MSL
hPa
Rain
since 9 am
mm
Dir
 
Spd
km/h
Gust
km/h
Spd
kts
Gust
kts
06/06:00pm 24.0 18.4 8.8 38 8.2 SW 28 46 15 25 1005.0 1004.9 0.0
06/05:57pm 24.4 18.7 8.4 36 8.6 SW 28 46 15 25 1004.9 1004.8 0.0
06/05:30pm 24.4 18.0 8.4 36 8.6 SW 32 46 17 25 1004.5 1004.4 0.0
06/05:00pm 25.0 19.1 8.9 36 8.8 SW 30 44 16 24 1004.2 1004.1 0.0
06/04:30pm 25.4 18.9 8.8 35 9.0 SW 33 57 18 31 1003.9 1003.8 0.0
06/04:28pm 25.5 18.5 8.5 34 9.2 SW 35 57 19 31 1003.9 1003.8 0.0
06/04:00pm 25.8 18.7 9.6 36 9.0 SW 37 52 20 28 1003.6 1003.5 0.0
06/03:37pm 26.1 19.5 9.9 36 9.0 SW 35 54 19 29 1003.6 1003.5 0.0
06/03:30pm 25.9 18.6 8.8 34 9.3 SW 37 52 20 28 1003.5 1003.4 0.0
06/03:00pm 25.9 18.0 9.3 35 9.1 SW 41 59 22 32 1003.5 1003.4 0.0
06/02:30pm 25.4 17.7 8.8 35 9.0 SW 39 57 21 31 1003.6 1003.5 0.0
06/02:00pm 26.0 18.1 9.4 35 9.2 WSW 41 59 22 32 1003.6 1003.5 0.0
06/01:47pm 25.1 19.1 8.6 35 8.9 WSW 30 57 16 31 1003.5 1003.4 0.0
06/01:30pm 24.7 18.2 9.0 37 8.5 SW 33 46 18 25 1003.6 1003.5 0.0
06/01:00pm 24.7 18.4 9.0 37 8.5 SW 32 50 17 27 1003.8 1003.7 0.0
06/12:30pm 24.9 18.0 8.8 36 8.7 SW 35 54 19 29 1003.5 1003.4 0.0
06/12:16pm 25.3 19.2 9.6 37 8.6 SW 32 48 17 26 1003.4 1003.3 0.0
06/12:08pm 24.7 18.4 9.0 37 8.5 WSW 32 46 17 25 1003.3 1003.2 0.0
06/12:05pm 24.8 19.3 9.1 37 8.5 WSW 28 46 15 25 1003.4 1003.3 0.0
06/12:00pm 25.0 20.6 8.9 36 8.8 SW 22 32 12 17 1003.4 1003.3 0.0
06/11:30am 23.6 17.5 8.1 37 8.2 WSW 30 46 16 25 1003.6 1003.5 0.0
06/11:00am 23.1 18.0 7.6 37 8.1 WSW 24 43 13 23 1003.7 1003.6 0.0
06/10:30am 19.7 17.9 9.6 52 5.4 NNE 9 13 5 7 1004.5 1004.4 0.0
06/10:00am 17.1 15.3 9.5 61 4.0 E 9 13 5 7 1004.7 1004.6 0.0
06/09:30am 15.8 15.0 8.3 61 3.8 NNE 2 9 1 5 1004.5 1004.4 0.0
06/09:00am 12.5 12.0 7.8 73 2.3 CALM 0 7 0 4 1004.9 1004.8 -
06/08:30am 10.9 9.2 7.6 80 1.6 NE 6 9 3 5 1005.0 1004.9 -
06/08:00am 8.1 5.6 6.6 90 0.7 S 9 11 5 6 1005.1 1005.0 -
06/07:30am 7.2 5.2 6.3 94 0.4 NNW 6 9 3 5 1004.7 1004.6 -
06/07:00am 6.6 4.5 5.9 95 0.3 NNE 6 9 3 5 1004.7 1004.6 -
06/06:30am 6.5 4.8 5.9 96 0.3 SSW 4 9 2 5 1005.2 1005.1 -
06/06:00am 6.6 5.6 5.7 94 0.4 CALM 0 0 0 0 1005.0 1004.9 -
06/05:30am 6.7 5.7 5.8 94 0.4 CALM 0 0 0 0 1005.4 1005.3 -
06/05:00am 7.1 6.1 5.6 90 0.7 CALM 0 0 0 0 1005.9 1005.8 -
06/04:30am 6.5 4.7 5.5 93 0.4 SSW 4 6 2 3 1006.4 1006.3 -
06/04:00am 6.5 4.3 5.1 91 0.6 NNE 6 9 3 5 1006.7 1006.6 -
06/03:30am 7.2 6.2 5.7 90 0.7 CALM 0 0 0 0 1007.2 1007.1 -
06/03:00am 7.0 5.6 5.6 91 0.6 E 2 9 1 5 1007.4 1007.3 -
06/02:30am 8.0 6.7 5.8 86 1.0 W 2 7 1 4 1008.2 1008.1 -
06/02:00am 8.4 7.2 6.5 88 0.9 SSW 2 9 1 5 1008.5 1008.4 -
06/01:30am 8.6 7.8 6.6 87 0.9 CALM 0 0 0 0 1008.9 1008.8 -
06/01:00am 9.3 8.4 6.0 80 1.5 CALM 0 0 0 0 1009.3 1009.2 -
06/12:30am 10.3 9.2 5.3 71 2.3 CALM 0 7 0 4 1009.4 1009.3 0.0
06/12:00am 10.5 9.5 5.7 72 2.2 CALM 0 0 0 0 1010.0 1009.9 0.0
 
Date/Time
EDT
Temp
°C
App
Temp
°C
Dew
Point
Rel
Hum
%
Delta-T
°C
Wind Press
QNH
hPa
Press
MSL
hPa
Rain
since 9 am
mm
Dir
 
Spd
km/h
Gust
km/h
Spd
kts
Gust
kts
05/11:30pm 11.4 9.9 5.1 65 2.9 SSW 2 6 1 3 1010.3 1010.2 0.0
05/11:00pm 11.6 10.5 5.0 64 3.0 CALM 0 6 0 3 1010.9 1010.8 0.0
05/10:30pm 12.2 10.8 5.6 64 3.1 SW 2 6 1 3 1011.3 1011.2 0.0
05/10:00pm 13.7 12.0 4.0 52 4.4 SW 2 7 1 4 1011.6 1011.5 0.0
05/09:30pm 14.9 11.0 3.4 46 5.2 WSW 13 15 7 8 1011.6 1011.5 0.0
05/09:00pm 15.2 10.9 3.0 44 5.5 SW 15 20 8 11 1011.4 1011.3 0.0
05/08:30pm 15.3 11.2 2.5 42 5.7 SW 13 17 7 9 1011.3 1011.2 0.0
05/08:00pm 15.8 12.5 2.2 40 6.1 SW 9 13 5 7 1011.2 1011.1 0.0
05/07:30pm 16.7 12.4 1.2 35 6.8 SSW 13 19 7 10 1011.0 1010.9 0.0
05/07:00pm 17.9 12.5 1.4 33 7.4 SSW 19 32 10 17 1011.0 1010.9 0.0
05/06:30pm 18.9 12.1 0.5 29 8.2 SW 26 39 14 21 1011.1 1011.0 0.0
05/06:00pm 19.8 12.8 1.7 30 8.3 SW 28 41 15 22 1010.8 1010.7 0.0
05/05:40pm 19.9 12.1 1.4 29 8.4 WSW 32 54 17 29 1010.6 1010.5 0.0
05/05:30pm 20.1 12.6 1.5 29 8.5 WSW 30 43 16 23 1010.6 1010.5 0.0
05/05:01pm 20.1 12.3 1.5 29 8.5 WSW 32 50 17 27 1010.6 1010.5 0.0
05/05:00pm 20.2 12.4 1.6 29 8.5 WSW 32 44 17 24 1010.6 1010.5 0.0
05/04:30pm 20.3 13.0 2.2 30 8.4 SW 30 48 16 26 1010.5 1010.4 0.0
05/04:00pm 19.9 10.0 1.8 30 8.3 SW 43 61 23 33 1010.3 1010.2 0.0
05/03:44pm 19.9 10.7 3.6 34 7.7 SSW 41 59 22 32 1010.4 1010.3 0.0
05/03:30pm 19.9 9.5 2.3 31 8.1 SW 46 61 25 33 1010.4 1010.3 0.0
05/03:02pm 20.8 12.3 3.1 31 8.4 SW 37 61 20 33 1009.9 1009.8 0.0
05/03:00pm 20.6 12.4 2.9 31 8.3 SW 35 50 19 27 1010.3 1010.2 0.0
05/02:30pm 19.7 8.2 2.1 31 8.1 SW 52 72 28 39 1010.3 1010.2 0.0
05/02:00pm 20.1 10.3 2.0 30 8.4 SW 43 69 23 37 1010.4 1010.3 0.0
05/01:30pm 20.1 9.7 2.0 30 8.3 SW 46 82 25 44 1010.4 1010.3 0.0
05/01:02pm 19.5 9.9 1.0 29 8.3 WSW 41 80 22 43 1010.0 1009.9 0.0
05/01:00pm 19.7 11.0 1.7 30 8.2 WSW 37 61 20 33 1010.2 1010.1 0.0
05/12:31pm 19.5 9.4 1.5 30 8.2 SW 44 69 24 37 1010.2 1010.1 0.0
05/12:30pm 19.5 9.3 1.0 29 8.3 SW 44 69 24 37 1010.1 1010.0 0.0
05/12:28pm 19.5 9.1 1.9 31 8.1 SW 46 69 25 37 1010.3 1010.2 0.0
05/12:00pm 18.7 5.9 -0.2 28 8.2 SW 57 78 31 42 1009.7 1009.6 0.0
05/11:30am 18.6 7.9 0.2 29 8.1 SW 46 70 25 38 1010.0 1009.9 0.0
05/11:00am 18.1 4.7 -1.7 26 8.3 SW 59 85 32 46 1009.5 1009.4 0.0
05/10:53am 18.1 6.7 -2.2 25 8.4 SW 48 82 26 44 1009.4 1009.3 0.0
05/10:30am 18.0 8.7 2.7 36 7.0 SW 41 61 22 33 1009.1 1009.0 0.0
05/10:00am 17.3 8.8 3.2 39 6.5 SW 37 57 20 31 1008.7 1008.6 0.0
05/09:30am 16.1 8.8 4.5 46 5.4 WSW 32 67 17 36 1008.3 1008.2 0.0
05/09:00am 15.9 9.1 7.1 56 4.4 SW 32 52 17 28 1008.3 1008.2 0.0
05/08:46am 16.2 9.7 8.9 62 3.8 SW 33 54 18 29 1007.8 1007.7 0.0
05/08:30am 15.2 11.4 11.0 76 2.2 SSW 22 33 12 18 1007.0 1006.9 0.0
05/08:00am 15.0 16.4 14.4 96 0.3 CALM 0 0 0 0 1005.6 1005.5 0.0
05/07:30am 14.6 15.5 14.1 97 0.3 NNE 2 7 1 4 1004.9 1004.8 0.0
05/07:00am 14.6 15.0 13.8 95 0.5 W 4 7 2 4 1005.0 1004.9 0.0
05/06:30am 15.2 14.9 14.4 95 0.5 WSW 9 11 5 6 1004.4 1004.3 0.0
05/06:00am 15.9 16.5 15.7 99 0.1 SSW 7 13 4 7 1004.3 1004.2 0.0
05/05:30am 16.0 16.2 15.8 99 0.1 SSW 9 11 5 6 1003.8 1003.7 0.0
05/05:00am 16.6 18.6 16.0 96 0.4 CALM 0 0 0 0 1003.3 1003.2 0.0
05/04:30am 17.0 17.8 16.4 96 0.4 SW 7 9 4 5 1003.7 1003.6 0.0
05/04:00am 17.3 19.5 16.5 95 0.5 CALM 0 0 0 0 1003.4 1003.3 0.0
05/03:30am 17.5 19.7 16.4 93 0.7 CALM 0 0 0 0 1003.8 1003.7 0.0
05/03:00am 17.6 19.8 16.6 94 0.6 CALM 0 0 0 0 1004.3 1004.2 0.0
05/02:30am 17.5 18.9 16.4 93 0.7 NNE 4 9 2 5 1004.6 1004.5 0.0
05/02:00am 18.0 20.2 16.5 91 0.9 CALM 0 0 0 0 1005.3 1005.2 0.0
05/01:30am 18.0 20.2 16.5 91 0.9 CALM 0 0 0 0 1006.1 1006.0 0.0
05/01:00am 18.0 19.1 16.7 92 0.8 ENE 6 7 3 4 1006.5 1006.4 0.0
05/12:30am 18.1 19.2 16.6 91 0.9 ENE 6 7 3 4 1007.1 1007.0 0.0
05/12:00am 18.1 18.9 16.4 90 1.0 E 7 11 4 6 1007.5 1007.4 0.0
 
Date/Time
EDT
Temp
°C
App
Temp
°C
Dew
Point
Rel
Hum
%
Delta-T
°C
Wind Press
QNH
hPa
Press
MSL
hPa
Rain
since 9 am
mm
Dir
 
Spd
km/h
Gust
km/h
Spd
kts
Gust
kts
04/11:30pm 18.2 18.7 16.5 90 1.0 ESE 9 11 5 6 1008.0 1007.9 0.0
04/11:00pm 18.3 18.9 16.8 91 0.9 ESE 9 13 5 7 1008.4 1008.3 0.0
04/10:30pm 18.4 19.4 16.9 91 0.9 SE 7 11 4 6 1008.9 1008.8 0.0
04/10:00pm 18.6 19.4 17.3 92 0.8 SE 9 13 5 7 1009.3 1009.2 0.0
04/09:30pm 19.1 20.2 17.9 93 0.7 SE 9 11 5 6 1009.4 1009.3 0.0
04/09:00pm 19.6 20.7 17.9 90 1.0 SSE 9 15 5 8 1009.3 1009.2 0.0
04/08:30pm 20.0 21.1 18.0 88 1.2 SE 9 13 5 7 1009.1 1009.0 0.0
04/08:00pm 20.2 20.5 17.8 86 1.5 SE 13 17 7 9 1008.9 1008.8 0.0
04/07:30pm 20.5 21.2 17.9 85 1.6 ESE 11 15 6 8 1008.8 1008.7 0.0
04/07:00pm 20.9 21.2 17.9 83 1.9 SE 13 19 7 10 1008.9 1008.8 0.0
04/06:30pm 21.4 22.1 18.0 81 2.1 E 11 15 6 8 1008.9 1008.8 0.0
04/06:00pm 21.7 21.6 17.9 79 2.4 ESE 15 20 8 11 1008.8 1008.7 0.0
04/05:30pm 22.0 21.9 17.8 77 2.6 ESE 15 22 8 12 1008.9 1008.8 0.0
04/05:00pm 22.3 21.2 17.7 75 2.9 ESE 20 26 11 14 1008.8 1008.7 0.0
04/04:30pm 23.5 22.9 18.4 73 3.2 ESE 19 26 10 14 1008.9 1008.8 0.0
04/04:00pm 23.6 22.6 17.6 69 3.7 E 19 24 10 13 1009.0 1008.9 0.0
04/03:30pm 24.9 23.7 17.4 63 4.7 E 20 26 11 14 1009.1 1009.0 0.0
04/03:00pm 25.4 24.2 17.6 62 4.9 ESE 20 26 11 14 1009.5 1009.4 0.0
04/02:30pm 26.5 26.0 17.0 56 5.9 NE 15 20 8 11 1009.8 1009.7 0.0
04/02:00pm 26.2 27.4 17.3 58 5.6 NNE 7 13 4 7 1010.1 1010.0 0.0
04/01:30pm 25.9 26.4 16.5 56 5.8 NNE 9 17 5 9 1010.7 1010.6 0.0
04/01:00pm 25.3 25.2 17.0 60 5.2 ENE 13 19 7 10 1011.3 1011.2 0.0
04/12:30pm 24.5 24.3 16.7 61 4.8 NE 13 19 7 10 1011.8 1011.7 0.0
04/12:00pm 24.4 24.1 16.4 61 4.9 NNE 13 19 7 10 1012.5 1012.4 0.0
04/11:30am 23.0 23.4 16.3 66 4.1 ENE 9 13 5 7 1013.3 1013.2 0.0
04/11:00am 21.3 21.8 15.6 70 3.4 NE 7 11 4 6 1013.8 1013.7 0.0
04/10:30am 19.7 21.5 15.4 76 2.5 CALM 0 0 0 0 1014.2 1014.1 0.0
04/10:00am 18.7 19.8 15.6 82 1.8 SSE 4 6 2 3 1014.5 1014.4 0.0
04/09:30am 17.7 19.4 15.3 86 1.4 CALM 0 0 0 0 1014.7 1014.6 0.0
04/09:00am 16.3 17.8 14.7 90 0.9 CALM 0 0 0 0 1014.7 1014.6 0.0
04/08:30am 15.5 15.8 14.5 94 0.6 S 6 7 3 4 1014.6 1014.5 0.0
04/08:00am 14.9 16.3 14.3 96 0.3 CALM 0 0 0 0 1014.2 1014.1 0.0
04/07:30am 14.5 15.8 14.0 97 0.3 CALM 0 0 0 0 1014.0 1013.9 0.0
04/07:00am 14.2 14.2 13.7 97 0.3 S 6 7 3 4 1013.7 1013.6 0.0
04/06:30am 14.2 14.0 13.7 97 0.3 SSW 7 9 4 5 1013.2 1013.1 0.0
04/06:00am 14.8 14.8 14.3 97 0.3 SSW 7 9 4 5 1013.2 1013.1 0.0
04/05:30am 15.1 16.5 14.5 96 0.3 CALM 0 0 0 0 1013.2 1013.1 0.0
04/05:00am 14.9 16.3 14.4 97 0.3 CALM 0 0 0 0 1013.4 1013.3 0.0
04/04:30am 14.7 16.1 14.4 98 0.2 CALM 0 0 0 0 1013.5 1013.4 0.0
04/04:00am 14.5 14.7 14.2 98 0.2 SSW 6 7 3 4 1013.6 1013.5 0.0
04/03:30am 14.6 14.8 14.1 97 0.3 SSW 6 7 3 4 1013.9 1013.8 0.0
04/03:00am 14.6 14.3 14.3 98 0.2 S 9 11 5 6 1014.1 1014.0 0.0
04/02:30am 14.6 14.8 14.3 98 0.2 SSW 6 7 3 4 1014.4 1014.3 0.0
04/02:00am 14.4 15.6 13.9 97 0.3 CALM 0 0 0 0 1014.8 1014.7 0.0
04/01:30am 14.6 15.5 14.0 96 0.3 N 2 7 1 4 1015.3 1015.2 0.0
04/01:00am 14.7 14.9 14.2 97 0.3 N 6 7 3 4 1015.7 1015.5 0.0
04/12:30am 14.9 15.0 13.8 93 0.6 S 6 7 3 4 1015.9 1015.7 0.0
04/12:00am 14.6 15.8 13.8 95 0.4 CALM 0 6 0 3 1016.1 1015.9 0.0
 
Date/Time
EDT
Temp
°C
App
Temp
°C
Dew
Point
Rel
Hum
%
Delta-T
°C
Wind Press
QNH
hPa
Press
MSL
hPa
Rain
since 9 am
mm
Dir
 
Spd
km/h
Gust
km/h
Spd
kts
Gust
kts
03/11:30pm 14.9 14.9 14.1 95 0.5 SW 7 9 4 5 1016.3 1016.1 0.0
03/11:00pm 15.1 16.4 14.1 94 0.6 CALM 0 0 0 0 1016.6 1016.5 0.0
03/10:30pm 15.6 17.0 14.3 92 0.7 CALM 0 0 0 0 1016.5 1016.3 0.0
03/10:00pm 16.3 17.6 14.1 87 1.2 CALM 0 0 0 0 1016.6 1016.5 0.0
03/09:30pm 17.3 18.7 14.4 83 1.7 CALM 0 0 0 0 1016.5 1016.3 0.0
03/09:00pm 17.7 19.2 14.6 82 1.8 CALM 0 0 0 0 1016.4 1016.2 0.0
03/08:30pm 17.9 19.5 15.0 83 1.7 CALM 0 0 0 0 1016.3 1016.1 0.0
03/08:00pm 18.3 18.9 15.2 82 1.8 SSE 6 9 3 5 1015.9 1015.7 0.0
03/07:30pm 18.7 18.3 15.2 80 2.1 SE 11 15 6 8 1015.5 1015.4 0.0
03/07:00pm 19.6 17.9 14.6 73 2.9 ESE 17 24 9 13 1015.4 1015.3 0.0
03/06:30pm 20.1 18.2 15.1 73 2.9 SE 19 26 10 14 1015.2 1015.1 0.0

Other Formats:

Comma delimited format used in spreadsheet applications
http://www.bom.gov.au/fwo/IDN60801/IDN60801.95931.axf

JavaScript Object Notation format (JSON) in row-major order
http://www.bom.gov.au/fwo/IDN60801/IDN60801.95931.json